sensor_id;sensor_type;location;lat;lon;timestamp;temperature;humidity
69261;DHT22;56378;52.404;20.816;2023-02-28T00:00:44;-5.10;85.40
69261;DHT22;56378;52.404;20.816;2023-02-28T00:03:10;-5.20;85.30
69261;DHT22;56378;52.404;20.816;2023-02-28T00:05:36;-5.10;85.20
69261;DHT22;56378;52.404;20.816;2023-02-28T00:08:01;-5.20;85.20
69261;DHT22;56378;52.404;20.816;2023-02-28T00:10:30;-5.20;85.10
69261;DHT22;56378;52.404;20.816;2023-02-28T00:13:00;-5.20;85.10
69261;DHT22;56378;52.404;20.816;2023-02-28T00:15:27;-5.20;85.10
69261;DHT22;56378;52.404;20.816;2023-02-28T00:17:52;-5.20;85.20
69261;DHT22;56378;52.404;20.816;2023-02-28T00:20:19;-5.30;85.80
69261;DHT22;56378;52.404;20.816;2023-02-28T00:22:47;-5.30;85.80
69261;DHT22;56378;52.404;20.816;2023-02-28T00:25:16;-5.60;87.80
69261;DHT22;56378;52.404;20.816;2023-02-28T00:27:43;-5.80;89.40
69261;DHT22;56378;52.404;20.816;2023-02-28T00:30:16;-5.80;89.50
69261;DHT22;56378;52.404;20.816;2023-02-28T00:32:42;-5.80;89.20
69261;DHT22;56378;52.404;20.816;2023-02-28T00:35:09;-5.80;89.10
69261;DHT22;56378;52.404;20.816;2023-02-28T00:37:35;-5.80;89.10
69261;DHT22;56378;52.404;20.816;2023-02-28T00:40:01;-5.80;89.30
69261;DHT22;56378;52.404;20.816;2023-02-28T00:42:27;-5.80;89.00
69261;DHT22;56378;52.404;20.816;2023-02-28T00:44:53;-5.80;88.80
69261;DHT22;56378;52.404;20.816;2023-02-28T00:47:19;-5.90;88.90
69261;DHT22;56378;52.404;20.816;2023-02-28T00:49:45;-5.90;88.70
69261;DHT22;56378;52.404;20.816;2023-02-28T00:52:10;-6.00;88.80
69261;DHT22;56378;52.404;20.816;2023-02-28T00:54:36;-6.00;88.80
69261;DHT22;56378;52.404;20.816;2023-02-28T00:57:02;-6.00;89.20
69261;DHT22;56378;52.404;20.816;2023-02-28T00:59:27;-6.10;89.20
69261;DHT22;56378;52.404;20.816;2023-02-28T01:01:53;-6.10;88.80
69261;DHT22;56378;52.404;20.816;2023-02-28T01:04:19;-6.10;88.60
69261;DHT22;56378;52.404;20.816;2023-02-28T01:06:45;-6.20;88.70
69261;DHT22;56378;52.404;20.816;2023-02-28T01:09:11;-6.20;89.00
69261;DHT22;56378;52.404;20.816;2023-02-28T01:11:37;-6.20;89.40
69261;DHT22;56378;52.404;20.816;2023-02-28T01:14:03;-6.30;89.60
69261;DHT22;56378;52.404;20.816;2023-02-28T01:16:30;-6.30;89.80
69261;DHT22;56378;52.404;20.816;2023-02-28T01:18:56;-6.30;89.80
69261;DHT22;56378;52.404;20.816;2023-02-28T01:21:22;-6.40;89.90
69261;DHT22;56378;52.404;20.816;2023-02-28T01:23:49;-6.40;89.90
69261;DHT22;56378;52.404;20.816;2023-02-28T01:26:20;-6.40;90.00
69261;DHT22;56378;52.404;20.816;2023-02-28T01:28:47;-6.50;90.10
69261;DHT22;56378;52.404;20.816;2023-02-28T01:31:13;-6.50;90.10
69261;DHT22;56378;52.404;20.816;2023-02-28T01:33:39;-6.50;90.10
69261;DHT22;56378;52.404;20.816;2023-02-28T01:36:11;-6.60;90.30
69261;DHT22;56378;52.404;20.816;2023-02-28T01:38:38;-6.60;90.50
69261;DHT22;56378;52.404;20.816;2023-02-28T01:41:04;-6.60;91.10
69261;DHT22;56378;52.404;20.816;2023-02-28T01:46:09;-6.60;91.00
69261;DHT22;56378;52.404;20.816;2023-02-28T01:48:38;-6.60;91.00
69261;DHT22;56378;52.404;20.816;2023-02-28T01:51:10;-6.70;91.00
69261;DHT22;56378;52.404;20.816;2023-02-28T01:53:41;-6.70;91.50
69261;DHT22;56378;52.404;20.816;2023-02-28T01:56:09;-6.70;91.60
69261;DHT22;56378;52.404;20.816;2023-02-28T01:58:36;-6.70;92.00
69261;DHT22;56378;52.404;20.816;2023-02-28T02:01:02;-6.80;92.10
69261;DHT22;56378;52.404;20.816;2023-02-28T02:03:29;-6.90;92.60
69261;DHT22;56378;52.404;20.816;2023-02-28T02:05:56;-6.80;92.60
69261;DHT22;56378;52.404;20.816;2023-02-28T02:08:26;-6.80;92.40
69261;DHT22;56378;52.404;20.816;2023-02-28T02:11:01;-6.80;92.50
69261;DHT22;56378;52.404;20.816;2023-02-28T02:43:49;-7.10;93.30
69261;DHT22;56378;52.404;20.816;2023-02-28T02:46:20;-7.10;93.50
69261;DHT22;56378;52.404;20.816;2023-02-28T02:48:48;-7.10;93.30
69261;DHT22;56378;52.404;20.816;2023-02-28T02:51:17;-7.10;93.30
69261;DHT22;56378;52.404;20.816;2023-02-28T02:53:52;-7.20;93.00
69261;DHT22;56378;52.404;20.816;2023-02-28T02:56:23;-7.20;93.50
69261;DHT22;56378;52.404;20.816;2023-02-28T02:58:51;-7.20;93.40
69261;DHT22;56378;52.404;20.816;2023-02-28T03:01:21;-7.20;93.40
69261;DHT22;56378;52.404;20.816;2023-02-28T03:03:55;-7.30;93.40
69261;DHT22;56378;52.404;20.816;2023-02-28T03:06:22;-7.30;93.60
69261;DHT22;56378;52.404;20.816;2023-02-28T03:08:48;-7.30;93.60
69261;DHT22;56378;52.404;20.816;2023-02-28T03:11:15;-7.30;93.40
69261;DHT22;56378;52.404;20.816;2023-02-28T03:14:09;-7.40;93.40
69261;DHT22;56378;52.404;20.816;2023-02-28T03:25:20;-7.50;93.00
69261;DHT22;56378;52.404;20.816;2023-02-28T03:32:56;-7.60;93.30
69261;DHT22;56378;52.404;20.816;2023-02-28T03:35:26;-7.60;93.30
69261;DHT22;56378;52.404;20.816;2023-02-28T03:38:00;-7.70;93.50
69261;DHT22;56378;52.404;20.816;2023-02-28T03:40:31;-7.70;93.50
69261;DHT22;56378;52.404;20.816;2023-02-28T03:43:01;-7.70;93.70
69261;DHT22;56378;52.404;20.816;2023-02-28T03:45:29;-7.80;94.20
69261;DHT22;56378;52.404;20.816;2023-02-28T03:48:16;-7.80;94.50
69261;DHT22;56378;52.404;20.816;2023-02-28T03:50:46;-7.90;94.70
69261;DHT22;56378;52.404;20.816;2023-02-28T03:53:29;-8.00;95.50
69261;DHT22;56378;52.404;20.816;2023-02-28T04:01:37;-8.00;95.00
69261;DHT22;56378;52.404;20.816;2023-02-28T04:04:04;-8.00;95.00
69261;DHT22;56378;52.404;20.816;2023-02-28T04:06:31;-8.00;95.00
69261;DHT22;56378;52.404;20.816;2023-02-28T04:08:57;-8.00;94.60
69261;DHT22;56378;52.404;20.816;2023-02-28T04:11:35;-8.10;94.40
69261;DHT22;56378;52.404;20.816;2023-02-28T04:14:02;-8.10;94.30
69261;DHT22;56378;52.404;20.816;2023-02-28T04:16:29;-8.10;94.40
69261;DHT22;56378;52.404;20.816;2023-02-28T04:18:55;-8.10;94.30
69261;DHT22;56378;52.404;20.816;2023-02-28T04:21:35;-8.10;94.30
69261;DHT22;56378;52.404;20.816;2023-02-28T04:24:02;-8.10;94.30
69261;DHT22;56378;52.404;20.816;2023-02-28T04:26:33;-8.20;94.00
69261;DHT22;56378;52.404;20.816;2023-02-28T04:29:02;-8.20;94.60
69261;DHT22;56378;52.404;20.816;2023-02-28T04:31:28;-8.30;94.80
69261;DHT22;56378;52.404;20.816;2023-02-28T04:33:53;-8.30;95.00
69261;DHT22;56378;52.404;20.816;2023-02-28T04:36:19;-8.30;95.10
69261;DHT22;56378;52.404;20.816;2023-02-28T04:38:45;-8.30;95.10
69261;DHT22;56378;52.404;20.816;2023-02-28T04:41:12;-8.30;95.40
69261;DHT22;56378;52.404;20.816;2023-02-28T04:43:38;-8.30;95.40
69261;DHT22;56378;52.404;20.816;2023-02-28T04:46:05;-8.30;95.20
69261;DHT22;56378;52.404;20.816;2023-02-28T04:48:33;-8.30;95.30
69261;DHT22;56378;52.404;20.816;2023-02-28T04:53:28;-8.40;95.30
69261;DHT22;56378;52.404;20.816;2023-02-28T04:55:55;-8.40;94.90
69261;DHT22;56378;52.404;20.816;2023-02-28T04:58:21;-8.40;95.00
69261;DHT22;56378;52.404;20.816;2023-02-28T05:00:52;-8.40;94.60
69261;DHT22;56378;52.404;20.816;2023-02-28T05:03:18;-8.40;94.50
69261;DHT22;56378;52.404;20.816;2023-02-28T05:05:46;-8.40;94.40
69261;DHT22;56378;52.404;20.816;2023-02-28T05:08:12;-8.50;94.70
69261;DHT22;56378;52.404;20.816;2023-02-28T05:10:38;-8.50;94.70
69261;DHT22;56378;52.404;20.816;2023-02-28T05:13:04;-8.50;94.90
69261;DHT22;56378;52.404;20.816;2023-02-28T05:15:29;-8.50;95.00
69261;DHT22;56378;52.404;20.816;2023-02-28T05:17:55;-8.50;95.00
69261;DHT22;56378;52.404;20.816;2023-02-28T05:20:21;-8.50;94.70
69261;DHT22;56378;52.404;20.816;2023-02-28T05:22:47;-8.50;94.40
69261;DHT22;56378;52.404;20.816;2023-02-28T05:25:17;-8.50;94.40
69261;DHT22;56378;52.404;20.816;2023-02-28T05:27:43;-8.50;94.30
69261;DHT22;56378;52.404;20.816;2023-02-28T05:30:10;-8.50;94.10
69261;DHT22;56378;52.404;20.816;2023-02-28T05:32:39;-8.50;94.00
69261;DHT22;56378;52.404;20.816;2023-02-28T05:35:09;-8.50;93.90
69261;DHT22;56378;52.404;20.816;2023-02-28T05:37:35;-8.50;93.70
69261;DHT22;56378;52.404;20.816;2023-02-28T05:40:02;-8.50;93.30
69261;DHT22;56378;52.404;20.816;2023-02-28T05:42:31;-8.50;93.30
69261;DHT22;56378;52.404;20.816;2023-02-28T05:44:57;-8.40;93.30
69261;DHT22;56378;52.404;20.816;2023-02-28T05:47:23;-8.40;93.30
69261;DHT22;56378;52.404;20.816;2023-02-28T05:49:48;-8.40;93.30
69261;DHT22;56378;52.404;20.816;2023-02-28T05:52:14;-8.30;93.70
69261;DHT22;56378;52.404;20.816;2023-02-28T05:54:40;-8.30;94.00
69261;DHT22;56378;52.404;20.816;2023-02-28T05:57:06;-8.10;94.00
69261;DHT22;56378;52.404;20.816;2023-02-28T05:59:32;-8.00;94.00
69261;DHT22;56378;52.404;20.816;2023-02-28T06:01:58;-7.90;93.90
69261;DHT22;56378;52.404;20.816;2023-02-28T06:04:23;-7.70;93.90
69261;DHT22;56378;52.404;20.816;2023-02-28T06:06:50;-7.50;93.70
69261;DHT22;56378;52.404;20.816;2023-02-28T06:09:17;-7.30;93.40
69261;DHT22;56378;52.404;20.816;2023-02-28T06:11:43;-7.10;93.10
69261;DHT22;56378;52.404;20.816;2023-02-28T06:14:15;-6.70;92.40
69261;DHT22;56378;52.404;20.816;2023-02-28T06:16:41;-6.30;91.50
69261;DHT22;56378;52.404;20.816;2023-02-28T06:19:08;-5.90;90.90
69261;DHT22;56378;52.404;20.816;2023-02-28T06:21:34;-5.30;89.60
69261;DHT22;56378;52.404;20.816;2023-02-28T06:24:00;-4.90;86.80
69261;DHT22;56378;52.404;20.816;2023-02-28T06:26:26;-4.40;85.00
69261;DHT22;56378;52.404;20.816;2023-02-28T06:28:52;-3.70;82.90
69261;DHT22;56378;52.404;20.816;2023-02-28T06:31:18;-3.20;80.90
69261;DHT22;56378;52.404;20.816;2023-02-28T06:33:45;-2.60;79.70
69261;DHT22;56378;52.404;20.816;2023-02-28T06:36:13;-2.10;75.10
69261;DHT22;56378;52.404;20.816;2023-02-28T06:38:39;-1.60;73.60
69261;DHT22;56378;52.404;20.816;2023-02-28T06:41:07;-1.10;72.50
69261;DHT22;56378;52.404;20.816;2023-02-28T06:43:38;-0.90;70.60
69261;DHT22;56378;52.404;20.816;2023-02-28T06:46:08;-0.10;69.70
69261;DHT22;56378;52.404;20.816;2023-02-28T06:48:35;0.60;66.50
69261;DHT22;56378;52.404;20.816;2023-02-28T06:51:07;0.90;65.40
69261;DHT22;56378;52.404;20.816;2023-02-28T06:53:33;1.20;64.10
69261;DHT22;56378;52.404;20.816;2023-02-28T06:55:59;1.70;63.20
69261;DHT22;56378;52.404;20.816;2023-02-28T06:58:29;2.00;62.70
69261;DHT22;56378;52.404;20.816;2023-02-28T07:00:54;2.70;61.50
69261;DHT22;56378;52.404;20.816;2023-02-28T07:03:21;3.30;59.90
69261;DHT22;56378;52.404;20.816;2023-02-28T07:05:47;3.80;58.20
69261;DHT22;56378;52.404;20.816;2023-02-28T07:08:12;4.40;57.00
69261;DHT22;56378;52.404;20.816;2023-02-28T07:10:38;5.00;53.80
69261;DHT22;56378;52.404;20.816;2023-02-28T07:13:05;5.00;52.80
69261;DHT22;56378;52.404;20.816;2023-02-28T07:15:31;5.10;53.10
69261;DHT22;56378;52.404;20.816;2023-02-28T07:17:56;5.70;50.30
69261;DHT22;56378;52.404;20.816;2023-02-28T07:20:23;6.20;49.50
69261;DHT22;56378;52.404;20.816;2023-02-28T07:22:50;6.70;48.20
69261;DHT22;56378;52.404;20.816;2023-02-28T07:25:26;6.20;46.60
69261;DHT22;56378;52.404;20.816;2023-02-28T07:27:53;6.40;46.10
69261;DHT22;56378;52.404;20.816;2023-02-28T07:30:19;6.60;46.50
69261;DHT22;56378;52.404;20.816;2023-02-28T07:32:44;6.50;47.30
69261;DHT22;56378;52.404;20.816;2023-02-28T07:35:10;7.00;44.60
69261;DHT22;56378;52.404;20.816;2023-02-28T07:37:36;7.50;44.10
69261;DHT22;56378;52.404;20.816;2023-02-28T07:40:07;8.20;42.60
69261;DHT22;56378;52.404;20.816;2023-02-28T07:42:34;8.70;40.20
69261;DHT22;56378;52.404;20.816;2023-02-28T07:45:01;7.80;41.50
69261;DHT22;56378;52.404;20.816;2023-02-28T07:47:28;8.00;40.80
69261;DHT22;56378;52.404;20.816;2023-02-28T07:49:54;8.80;39.80
69261;DHT22;56378;52.404;20.816;2023-02-28T07:52:19;9.10;39.20
69261;DHT22;56378;52.404;20.816;2023-02-28T07:54:45;8.60;38.90
69261;DHT22;56378;52.404;20.816;2023-02-28T07:57:10;8.20;39.60
69261;DHT22;56378;52.404;20.816;2023-02-28T07:59:36;8.30;39.80
69261;DHT22;56378;52.404;20.816;2023-02-28T08:02:02;7.30;39.50
69261;DHT22;56378;52.404;20.816;2023-02-28T08:04:31;6.60;41.30
69261;DHT22;56378;52.404;20.816;2023-02-28T08:06:57;6.30;41.40
69261;DHT22;56378;52.404;20.816;2023-02-28T08:09:23;6.40;41.90
69261;DHT22;56378;52.404;20.816;2023-02-28T08:11:49;7.20;40.60
69261;DHT22;56378;52.404;20.816;2023-02-28T08:14:14;7.50;39.50
69261;DHT22;56378;52.404;20.816;2023-02-28T08:16:40;7.90;38.00
69261;DHT22;56378;52.404;20.816;2023-02-28T08:19:06;8.10;37.80
69261;DHT22;56378;52.404;20.816;2023-02-28T08:21:32;9.20;38.00
69261;DHT22;56378;52.404;20.816;2023-02-28T08:23:58;10.60;35.70
69261;DHT22;56378;52.404;20.816;2023-02-28T08:26:24;11.40;34.70
69261;DHT22;56378;52.404;20.816;2023-02-28T08:28:49;12.10;33.50
69261;DHT22;56378;52.404;20.816;2023-02-28T08:31:16;12.90;32.30
69261;DHT22;56378;52.404;20.816;2023-02-28T08:33:43;13.30;31.80
69261;DHT22;56378;52.404;20.816;2023-02-28T08:36:10;12.60;30.70
69261;DHT22;56378;52.404;20.816;2023-02-28T08:38:36;11.90;31.40
69261;DHT22;56378;52.404;20.816;2023-02-28T08:41:08;12.50;31.70
69261;DHT22;56378;52.404;20.816;2023-02-28T08:43:35;13.10;30.60
69261;DHT22;56378;52.404;20.816;2023-02-28T08:46:00;13.30;30.20
69261;DHT22;56378;52.404;20.816;2023-02-28T08:48:27;12.60;31.60
69261;DHT22;56378;52.404;20.816;2023-02-28T08:50:57;13.40;30.70
69261;DHT22;56378;52.404;20.816;2023-02-28T08:53:23;13.20;29.90
69261;DHT22;56378;52.404;20.816;2023-02-28T08:55:56;12.20;30.30
69261;DHT22;56378;52.404;20.816;2023-02-28T08:58:22;12.00;32.00
69261;DHT22;56378;52.404;20.816;2023-02-28T09:00:48;11.90;32.20
69261;DHT22;56378;52.404;20.816;2023-02-28T09:03:13;12.50;32.10
69261;DHT22;56378;52.404;20.816;2023-02-28T09:05:39;13.20;31.60
69261;DHT22;56378;52.404;20.816;2023-02-28T09:08:05;14.10;30.00
69261;DHT22;56378;52.404;20.816;2023-02-28T09:10:30;14.20;29.20
69261;DHT22;56378;52.404;20.816;2023-02-28T09:12:56;14.20;29.00
69261;DHT22;56378;52.404;20.816;2023-02-28T09:15:22;14.30;29.90
69261;DHT22;56378;52.404;20.816;2023-02-28T09:17:47;13.80;29.40
69261;DHT22;56378;52.404;20.816;2023-02-28T09:20:13;12.90;29.20
69261;DHT22;56378;52.404;20.816;2023-02-28T09:22:39;13.00;28.90
69261;DHT22;56378;52.404;20.816;2023-02-28T09:25:05;13.10;29.70
69261;DHT22;56378;52.404;20.816;2023-02-28T09:27:30;13.50;30.50
69261;DHT22;56378;52.404;20.816;2023-02-28T09:29:56;14.10;30.60
69261;DHT22;56378;52.404;20.816;2023-02-28T09:32:22;14.50;28.90
69261;DHT22;56378;52.404;20.816;2023-02-28T09:34:47;14.30;29.20
69261;DHT22;56378;52.404;20.816;2023-02-28T09:37:13;14.30;29.50
69261;DHT22;56378;52.404;20.816;2023-02-28T09:39:39;14.50;28.60
69261;DHT22;56378;52.404;20.816;2023-02-28T09:42:04;14.60;28.50
69261;DHT22;56378;52.404;20.816;2023-02-28T09:44:35;13.30;29.20
69261;DHT22;56378;52.404;20.816;2023-02-28T09:49:39;13.10;30.50
69261;DHT22;56378;52.404;20.816;2023-02-28T09:52:16;13.30;29.90
69261;DHT22;56378;52.404;20.816;2023-02-28T09:54:43;13.90;30.10
69261;DHT22;56378;52.404;20.816;2023-02-28T09:57:37;13.50;29.10
69261;DHT22;56378;52.404;20.816;2023-02-28T10:00:22;13.40;30.50
69261;DHT22;56378;52.404;20.816;2023-02-28T10:08:26;14.80;29.20
69261;DHT22;56378;52.404;20.816;2023-02-28T10:10:58;15.30;27.90
69261;DHT22;56378;52.404;20.816;2023-02-28T10:13:33;15.30;28.20
69261;DHT22;56378;52.404;20.816;2023-02-28T10:16:16;15.40;28.40
69261;DHT22;56378;52.404;20.816;2023-02-28T10:18:52;15.70;27.50
69261;DHT22;56378;52.404;20.816;2023-02-28T10:21:35;16.20;26.60
69261;DHT22;56378;52.404;20.816;2023-02-28T10:24:32;15.30;27.30
69261;DHT22;56378;52.404;20.816;2023-02-28T10:27:16;15.50;27.30
69261;DHT22;56378;52.404;20.816;2023-02-28T10:29:47;15.80;27.10
69261;DHT22;56378;52.404;20.816;2023-02-28T10:32:17;15.60;27.50
69261;DHT22;56378;52.404;20.816;2023-02-28T10:34:43;15.90;27.10
69261;DHT22;56378;52.404;20.816;2023-02-28T10:37:11;16.10;27.50
69261;DHT22;56378;52.404;20.816;2023-02-28T10:39:45;16.60;27.60
69261;DHT22;56378;52.404;20.816;2023-02-28T10:42:26;16.20;26.40
69261;DHT22;56378;52.404;20.816;2023-02-28T10:48:05;16.50;26.30
69261;DHT22;56378;52.404;20.816;2023-02-28T10:56:00;14.80;28.40
69261;DHT22;56378;52.404;20.816;2023-02-28T10:58:42;15.40;27.50
69261;DHT22;56378;52.404;20.816;2023-02-28T11:01:15;15.80;27.40
69261;DHT22;56378;52.404;20.816;2023-02-28T11:03:41;14.50;27.20
69261;DHT22;56378;52.404;20.816;2023-02-28T11:06:16;14.70;28.80
69261;DHT22;56378;52.404;20.816;2023-02-28T11:08:53;14.90;27.40
69261;DHT22;56378;52.404;20.816;2023-02-28T11:11:22;13.70;28.00
69261;DHT22;56378;52.404;20.816;2023-02-28T11:13:52;13.40;30.30
69261;DHT22;56378;52.404;20.816;2023-02-28T11:16:19;12.90;29.80
69261;DHT22;56378;52.404;20.816;2023-02-28T11:18:54;14.10;29.30
69261;DHT22;56378;52.404;20.816;2023-02-28T11:21:27;15.60;27.70
69261;DHT22;56378;52.404;20.816;2023-02-28T11:24:04;14.80;26.80
69261;DHT22;56378;52.404;20.816;2023-02-28T11:26:46;15.40;27.00
69261;DHT22;56378;52.404;20.816;2023-02-28T11:29:30;15.80;26.80
69261;DHT22;56378;52.404;20.816;2023-02-28T11:34:38;16.00;26.60
69261;DHT22;56378;52.404;20.816;2023-02-28T11:37:05;15.20;27.90
69261;DHT22;56378;52.404;20.816;2023-02-28T11:39:34;13.80;27.50
69261;DHT22;56378;52.404;20.816;2023-02-28T11:56:06;10.70;31.60
69261;DHT22;56378;52.404;20.816;2023-02-28T12:07:03;10.90;32.40
69261;DHT22;56378;52.404;20.816;2023-02-28T12:09:50;10.70;32.30
69261;DHT22;56378;52.404;20.816;2023-02-28T12:12:38;10.40;31.40
69261;DHT22;56378;52.404;20.816;2023-02-28T12:15:21;10.20;32.80
69261;DHT22;56378;52.404;20.816;2023-02-28T12:26:43;8.80;33.50
69261;DHT22;56378;52.404;20.816;2023-02-28T12:32:20;8.10;35.50
69261;DHT22;56378;52.404;20.816;2023-02-28T12:34:54;8.40;36.40
69261;DHT22;56378;52.404;20.816;2023-02-28T12:38:01;8.60;35.90
69261;DHT22;56378;52.404;20.816;2023-02-28T12:40:40;9.00;35.50
69261;DHT22;56378;52.404;20.816;2023-02-28T12:43:09;9.30;34.90
69261;DHT22;56378;52.404;20.816;2023-02-28T12:45:57;9.50;33.20
69261;DHT22;56378;52.404;20.816;2023-02-28T12:48:29;9.40;33.70
69261;DHT22;56378;52.404;20.816;2023-02-28T12:50:58;9.50;33.80
69261;DHT22;56378;52.404;20.816;2023-02-28T12:53:35;9.70;34.40
69261;DHT22;56378;52.404;20.816;2023-02-28T12:56:14;9.90;34.40
69261;DHT22;56378;52.404;20.816;2023-02-28T12:58:56;10.10;34.50
69261;DHT22;56378;52.404;20.816;2023-02-28T13:07:10;10.40;32.70
69261;DHT22;56378;52.404;20.816;2023-02-28T13:09:38;9.80;33.20
69261;DHT22;56378;52.404;20.816;2023-02-28T13:12:15;9.70;34.40
69261;DHT22;56378;52.404;20.816;2023-02-28T13:14:42;10.10;33.40
69261;DHT22;56378;52.404;20.816;2023-02-28T13:22:41;11.70;31.80
69261;DHT22;56378;52.404;20.816;2023-02-28T13:27:51;15.20;28.20
69261;DHT22;56378;52.404;20.816;2023-02-28T13:38:40;17.90;24.80
69261;DHT22;56378;52.404;20.816;2023-02-28T13:44:04;18.20;24.50
69261;DHT22;56378;52.404;20.816;2023-02-28T13:46:32;16.40;25.40
69261;DHT22;56378;52.404;20.816;2023-02-28T13:51:50;13.40;28.30
69261;DHT22;56378;52.404;20.816;2023-02-28T14:05:19;8.60;34.10
69261;DHT22;56378;52.404;20.816;2023-02-28T14:07:53;8.30;34.60
69261;DHT22;56378;52.404;20.816;2023-02-28T14:10:45;7.90;35.10
69261;DHT22;56378;52.404;20.816;2023-02-28T14:15:44;7.20;36.00
69261;DHT22;56378;52.404;20.816;2023-02-28T14:18:29;6.90;36.70
69261;DHT22;56378;52.404;20.816;2023-02-28T14:26:44;6.30;38.20
69261;DHT22;56378;52.404;20.816;2023-02-28T14:29:23;6.10;38.90
69261;DHT22;56378;52.404;20.816;2023-02-28T14:32:26;6.00;39.30
69261;DHT22;56378;52.404;20.816;2023-02-28T14:37:53;5.60;40.80
69261;DHT22;56378;52.404;20.816;2023-02-28T14:40:35;5.50;41.40
69261;DHT22;56378;52.404;20.816;2023-02-28T14:43:06;5.40;41.60
69261;DHT22;56378;52.404;20.816;2023-02-28T14:45:43;5.30;41.50
69261;DHT22;56378;52.404;20.816;2023-02-28T14:48:09;5.10;42.00
69261;DHT22;56378;52.404;20.816;2023-02-28T14:50:37;5.00;42.60
69261;DHT22;56378;52.404;20.816;2023-02-28T14:53:03;4.90;42.60
69261;DHT22;56378;52.404;20.816;2023-02-28T14:55:35;4.80;43.00
69261;DHT22;56378;52.404;20.816;2023-02-28T14:58:06;4.60;43.50
69261;DHT22;56378;52.404;20.816;2023-02-28T15:00:34;4.50;43.30
69261;DHT22;56378;52.404;20.816;2023-02-28T15:03:39;4.50;43.60
69261;DHT22;56378;52.404;20.816;2023-02-28T15:06:16;4.40;43.60
69261;DHT22;56378;52.404;20.816;2023-02-28T15:08:46;4.30;43.80
69261;DHT22;56378;52.404;20.816;2023-02-28T15:11:15;4.20;44.00
69261;DHT22;56378;52.404;20.816;2023-02-28T15:13:47;4.10;43.80
69261;DHT22;56378;52.404;20.816;2023-02-28T15:16:17;3.80;44.40
69261;DHT22;56378;52.404;20.816;2023-02-28T15:19:03;3.80;44.60
69261;DHT22;56378;52.404;20.816;2023-02-28T15:21:39;3.70;45.60
69261;DHT22;56378;52.404;20.816;2023-02-28T15:24:28;3.60;45.10
69261;DHT22;56378;52.404;20.816;2023-02-28T15:26:58;3.50;45.60
69261;DHT22;56378;52.404;20.816;2023-02-28T15:29:27;3.40;45.70
69261;DHT22;56378;52.404;20.816;2023-02-28T15:32:01;3.30;46.70
69261;DHT22;56378;52.404;20.816;2023-02-28T15:34:37;3.30;46.90
69261;DHT22;56378;52.404;20.816;2023-02-28T15:39:58;3.20;47.40
69261;DHT22;56378;52.404;20.816;2023-02-28T15:42:30;3.00;47.70
69261;DHT22;56378;52.404;20.816;2023-02-28T15:44:57;3.00;48.30
69261;DHT22;56378;52.404;20.816;2023-02-28T15:47:28;2.90;48.60
69261;DHT22;56378;52.404;20.816;2023-02-28T15:50:01;2.70;48.50
69261;DHT22;56378;52.404;20.816;2023-02-28T15:55:21;2.50;49.40
69261;DHT22;56378;52.404;20.816;2023-02-28T15:57:53;2.40;50.10
69261;DHT22;56378;52.404;20.816;2023-02-28T16:00:22;2.30;50.50
69261;DHT22;56378;52.404;20.816;2023-02-28T16:02:49;2.20;50.90
69261;DHT22;56378;52.404;20.816;2023-02-28T16:05:25;2.10;51.30
69261;DHT22;56378;52.404;20.816;2023-02-28T16:07:57;2.00;51.90
69261;DHT22;56378;52.404;20.816;2023-02-28T16:10:24;1.90;52.30
69261;DHT22;56378;52.404;20.816;2023-02-28T16:12:54;1.80;52.80
69261;DHT22;56378;52.404;20.816;2023-02-28T16:17:47;1.50;54.00
69261;DHT22;56378;52.404;20.816;2023-02-28T16:20:18;1.30;54.00
69261;DHT22;56378;52.404;20.816;2023-02-28T16:22:44;1.20;54.80
69261;DHT22;56378;52.404;20.816;2023-02-28T16:25:15;1.10;54.80
69261;DHT22;56378;52.404;20.816;2023-02-28T16:27:42;1.00;55.10
69261;DHT22;56378;52.404;20.816;2023-02-28T16:30:23;0.80;55.50
69261;DHT22;56378;52.404;20.816;2023-02-28T16:32:50;0.70;55.90
69261;DHT22;56378;52.404;20.816;2023-02-28T16:35:16;0.50;55.90
69261;DHT22;56378;52.404;20.816;2023-02-28T16:37:43;0.40;56.20
69261;DHT22;56378;52.404;20.816;2023-02-28T16:40:22;0.30;56.70
69261;DHT22;56378;52.404;20.816;2023-02-28T16:42:50;0.10;57.10
69261;DHT22;56378;52.404;20.816;2023-02-28T16:45:20;0.00;57.70
69261;DHT22;56378;52.404;20.816;2023-02-28T16:47:46;-0.10;59.00
69261;DHT22;56378;52.404;20.816;2023-02-28T16:50:23;-0.30;60.10
69261;DHT22;56378;52.404;20.816;2023-02-28T16:52:49;-0.40;60.70
69261;DHT22;56378;52.404;20.816;2023-02-28T16:55:18;-0.50;61.60
69261;DHT22;56378;52.404;20.816;2023-02-28T16:57:50;-0.60;62.10
69261;DHT22;56378;52.404;20.816;2023-02-28T17:00:17;-0.70;62.90
69261;DHT22;56378;52.404;20.816;2023-02-28T17:02:43;-0.80;63.70
69261;DHT22;56378;52.404;20.816;2023-02-28T17:05:11;-0.90;63.80
69261;DHT22;56378;52.404;20.816;2023-02-28T17:07:38;-1.00;64.40
69261;DHT22;56378;52.404;20.816;2023-02-28T17:10:16;-1.10;64.50
69261;DHT22;56378;52.404;20.816;2023-02-28T17:12:42;-1.20;65.50
69261;DHT22;56378;52.404;20.816;2023-02-28T17:15:13;-1.30;65.50
69261;DHT22;56378;52.404;20.816;2023-02-28T17:17:39;-1.40;65.60
69261;DHT22;56378;52.404;20.816;2023-02-28T17:20:06;-1.50;65.80
69261;DHT22;56378;52.404;20.816;2023-02-28T17:22:32;-1.60;66.60
69261;DHT22;56378;52.404;20.816;2023-02-28T17:24:58;-1.70;66.70
69261;DHT22;56378;52.404;20.816;2023-02-28T17:27:24;-1.80;67.20
69261;DHT22;56378;52.404;20.816;2023-02-28T17:29:50;-1.90;67.80
69261;DHT22;56378;52.404;20.816;2023-02-28T17:32:16;-2.00;68.30
69261;DHT22;56378;52.404;20.816;2023-02-28T17:34:42;-2.00;68.90
69261;DHT22;56378;52.404;20.816;2023-02-28T17:37:09;-2.10;69.50
69261;DHT22;56378;52.404;20.816;2023-02-28T17:39:35;-2.10;69.10
69261;DHT22;56378;52.404;20.816;2023-02-28T17:42:00;-2.10;69.10
69261;DHT22;56378;52.404;20.816;2023-02-28T17:44:26;-2.20;69.30
69261;DHT22;56378;52.404;20.816;2023-02-28T17:46:54;-2.30;69.40
69261;DHT22;56378;52.404;20.816;2023-02-28T17:49:20;-2.30;70.20
69261;DHT22;56378;52.404;20.816;2023-02-28T17:51:46;-2.40;70.90
69261;DHT22;56378;52.404;20.816;2023-02-28T17:54:12;-2.60;71.70
69261;DHT22;56378;52.404;20.816;2023-02-28T17:56:39;-2.80;72.80
69261;DHT22;56378;52.404;20.816;2023-02-28T17:59:05;-3.00;74.90
69261;DHT22;56378;52.404;20.816;2023-02-28T18:01:30;-3.10;75.70
69261;DHT22;56378;52.404;20.816;2023-02-28T18:03:56;-3.10;75.30
69261;DHT22;56378;52.404;20.816;2023-02-28T18:08:50;-3.10;74.70
69261;DHT22;56378;52.404;20.816;2023-02-28T18:11:20;-3.10;75.40
69261;DHT22;56378;52.404;20.816;2023-02-28T18:13:49;-3.30;76.60
69261;DHT22;56378;52.404;20.816;2023-02-28T18:16:16;-3.30;77.10
69261;DHT22;56378;52.404;20.816;2023-02-28T18:18:42;-3.30;76.70
69261;DHT22;56378;52.404;20.816;2023-02-28T18:21:09;-3.30;77.00
69261;DHT22;56378;52.404;20.816;2023-02-28T18:23:43;-3.30;76.90